createdAt,value
2022-08-03T00:00:19.539Z,5.20
2022-08-03T00:04:33.634Z,5.18
2022-08-03T00:08:40.201Z,5.97
2022-08-03T00:12:43.269Z,5.45
2022-08-03T00:16:46.096Z,5.15
2022-08-03T00:20:50.201Z,5.80
2022-08-03T00:24:52.991Z,5.90
2022-08-03T00:28:55.862Z,5.75
2022-08-03T00:32:59.269Z,5.35
2022-08-03T00:37:03.646Z,6.22
2022-08-03T00:41:06.458Z,5.38
2022-08-03T00:45:09.840Z,5.88
2022-08-03T00:49:12.700Z,5.82
2022-08-03T00:53:17.020Z,5.55
2022-08-03T00:57:21.241Z,5.15
2022-08-03T01:01:24.146Z,5.65
2022-08-03T01:05:27.408Z,5.60
2022-08-03T01:09:37.820Z,5.70
2022-08-03T01:14:04.578Z,5.97
2022-08-03T01:18:18.521Z,5.65
2022-08-03T01:22:41.245Z,5.70
2022-08-03T01:26:55.069Z,5.95
2022-08-03T01:31:05.983Z,5.47
2022-08-03T01:35:13.253Z,5.10
2022-08-03T01:39:17.356Z,5.50
2022-08-03T01:43:55.147Z,5.40
2022-08-03T01:47:49.317Z,5.07
2022-08-03T01:52:02.884Z,5.00
2022-08-03T01:56:08.410Z,6.25
2022-08-03T02:00:12.296Z,5.97
2022-08-03T02:04:19.210Z,5.55
2022-08-03T02:08:28.032Z,5.03
2022-08-03T02:12:35.509Z,5.20
2022-08-03T02:16:38.392Z,5.53
2022-08-03T02:20:45.204Z,4.97
2022-08-03T02:24:50.938Z,5.03
2022-08-03T02:28:57.239Z,5.13
2022-08-03T02:33:01.665Z,5.00
2022-08-03T02:37:07.751Z,5.10
2022-08-03T02:41:16.325Z,4.80
2022-08-03T02:45:21.181Z,4.85
2022-08-03T02:49:40.865Z,5.00
2022-08-03T02:53:51.769Z,4.78
2022-08-03T02:57:56.566Z,5.18
2022-08-03T03:02:05.489Z,4.72
2022-08-03T03:06:10.199Z,4.88
2022-08-03T03:10:14.401Z,5.05
2022-08-03T03:14:18.411Z,4.88
2022-08-03T03:18:38.431Z,4.90
2022-08-03T03:22:45.262Z,4.90
2022-08-03T03:26:49.813Z,5.25
2022-08-03T03:30:53.518Z,5.18
2022-08-03T03:34:59.106Z,4.70
2022-08-03T03:39:15.775Z,5.43
2022-08-03T03:43:20.309Z,5.05
2022-08-03T03:47:32.834Z,5.03
2022-08-03T03:51:36.148Z,5.10
2022-08-03T03:55:57.735Z,4.75
2022-08-03T04:00:03.802Z,4.68
2022-08-03T04:04:21.270Z,5.10
2022-08-03T04:08:42.483Z,4.70
2022-08-03T04:12:51.544Z,4.72
2022-08-03T04:16:59.506Z,4.68
2022-08-03T04:21:05.325Z,4.55
2022-08-03T04:25:11.276Z,4.50
2022-08-03T04:29:15.477Z,4.85
2022-08-03T04:33:20.466Z,4.80
2022-08-03T04:37:34.021Z,5.13
2022-08-03T04:42:07.551Z,5.15
2022-08-03T04:46:00.996Z,4.57
2022-08-03T04:50:12.203Z,4.82
2022-08-03T04:54:17.484Z,4.72
2022-08-03T04:58:20.334Z,4.80
2022-08-03T05:02:23.546Z,4.90
2022-08-03T05:06:28.584Z,5.22
2022-08-03T05:10:31.412Z,4.85
2022-08-03T05:14:36.097Z,4.60
2022-08-03T05:18:39.081Z,4.50
2022-08-03T05:22:43.279Z,4.57
2022-08-03T05:26:46.037Z,4.57
2022-08-03T05:30:48.885Z,4.82
2022-08-03T05:34:51.704Z,4.63
2022-08-03T05:38:58.529Z,4.47
2022-08-03T05:43:05.078Z,4.60
2022-08-03T05:47:08.190Z,4.60
2022-08-03T05:51:12.285Z,4.85
2022-08-03T05:55:17.070Z,4.50
2022-08-03T05:59:37.488Z,5.32
2022-08-03T06:03:40.693Z,4.60
2022-08-03T06:07:43.533Z,4.60
2022-08-03T06:11:47.612Z,4.03
2022-08-03T06:15:50.351Z,4.18
2022-08-03T06:19:54.319Z,4.32
2022-08-03T06:23:57.147Z,3.30
2022-08-03T06:28:01.294Z,2.35
2022-08-03T06:32:04.198Z,2.40
2022-08-03T06:36:07.643Z,2.47
2022-08-03T06:40:13.963Z,2.80
2022-08-03T06:44:18.206Z,2.63
2022-08-03T06:48:20.946Z,2.83
2022-08-03T06:52:37.728Z,2.40
2022-08-03T06:56:41.370Z,1.90
2022-08-03T07:00:45.485Z,1.90
2022-08-03T07:04:48.477Z,2.00
2022-08-03T07:08:53.665Z,2.30
2022-08-03T07:12:58.221Z,2.42
2022-08-03T07:17:04.654Z,1.88
2022-08-03T07:21:16.148Z,2.40
2022-08-03T07:25:19.805Z,2.17
2022-08-03T07:29:22.588Z,2.30
2022-08-03T07:33:26.858Z,2.53
2022-08-03T07:37:30.665Z,2.03
2022-08-03T07:41:33.515Z,2.67
2022-08-03T07:45:37.069Z,2.33
2022-08-03T07:49:44.077Z,2.25
2022-08-03T07:53:47.155Z,2.15
2022-08-03T07:58:04.665Z,2.20
2022-08-03T08:02:08.208Z,2.30
2022-08-03T08:06:12.355Z,2.28
2022-08-03T08:10:16.456Z,2.10
2022-08-03T08:14:19.292Z,2.13
2022-08-03T08:18:22.089Z,2.10
2022-08-03T08:22:30.655Z,2.03
2022-08-03T08:26:34.292Z,2.00
2022-08-03T08:30:37.084Z,2.10
2022-08-03T08:34:39.944Z,2.25
2022-08-03T08:38:45.052Z,2.50
2022-08-03T08:42:57.889Z,2.50
2022-08-03T08:47:04.366Z,2.30
2022-08-03T08:51:07.836Z,2.20
2022-08-03T08:55:17.107Z,2.25
2022-08-03T08:59:20.701Z,2.42
2022-08-03T09:03:29.531Z,2.20
2022-08-03T09:07:34.150Z,2.40
2022-08-03T09:12:00.800Z,2.50
2022-08-03T09:16:15.565Z,2.50
2022-08-03T09:20:18.821Z,2.30
2022-08-03T09:24:40.806Z,2.80
2022-08-03T09:29:03.742Z,2.42
2022-08-03T09:33:09.653Z,2.40
2022-08-03T09:37:15.997Z,2.30
2022-08-03T09:41:19.803Z,2.40
2022-08-03T09:45:28.843Z,2.15
2022-08-03T09:49:31.711Z,2.17
2022-08-03T09:53:58.555Z,2.20
2022-08-03T09:58:07.273Z,2.20
2022-08-03T10:02:22.527Z,2.42
2022-08-03T10:06:28.941Z,2.30
2022-08-03T10:10:43.838Z,2.00
2022-08-03T10:14:48.044Z,2.60
2022-08-03T10:18:52.318Z,2.13
2022-08-03T10:22:55.881Z,2.67
2022-08-03T10:27:02.785Z,2.20
2022-08-03T10:31:07.716Z,2.30
2022-08-03T10:35:20.996Z,2.03
2022-08-03T10:39:28.542Z,2.47
2022-08-03T10:43:39.419Z,2.10
2022-08-03T10:47:42.533Z,1.95
2022-08-03T10:51:48.781Z,2.30
2022-08-03T10:56:17.375Z,2.30
2022-08-03T11:00:44.892Z,2.30
2022-08-03T11:04:47.784Z,3.05
2022-08-03T11:09:17.435Z,2.20
2022-08-03T11:13:21.885Z,2.30
2022-08-03T11:17:25.234Z,2.20
2022-08-03T11:21:57.115Z,2.10
2022-08-03T11:26:18.437Z,2.10
2022-08-03T11:30:27.533Z,2.10
2022-08-03T11:34:30.761Z,2.35
2022-08-03T11:38:33.659Z,2.15
2022-08-03T11:42:43.919Z,2.47
2022-08-03T11:46:46.810Z,2.30
2022-08-03T11:50:50.515Z,2.20
2022-08-03T11:54:57.005Z,2.50
2022-08-03T11:59:20.440Z,2.53
2022-08-03T12:03:24.675Z,2.17
2022-08-03T12:08:05.034Z,2.50
2022-08-03T12:11:59.762Z,2.45
2022-08-03T12:16:05.455Z,2.50
2022-08-03T12:20:10.520Z,2.47
2022-08-03T12:24:13.342Z,2.60
2022-08-03T12:28:37.361Z,2.60
2022-08-03T12:32:44.777Z,2.50
2022-08-03T12:36:52.334Z,2.75
2022-08-03T12:41:02.762Z,2.72
2022-08-03T12:45:22.798Z,2.38
2022-08-03T12:49:28.164Z,2.30
2022-08-03T12:53:31.089Z,2.75
2022-08-03T12:57:42.775Z,2.15
2022-08-03T13:01:52.216Z,2.58
2022-08-03T13:06:00.181Z,2.40
2022-08-03T13:10:07.864Z,2.85
2022-08-03T13:14:16.697Z,2.70
2022-08-03T13:18:22.645Z,2.90
2022-08-03T13:22:29.313Z,2.80
2022-08-03T13:26:32.096Z,2.30
2022-08-03T13:30:34.913Z,2.28
2022-08-03T13:34:38.645Z,2.45
2022-08-03T13:38:42.870Z,2.70
2022-08-03T13:42:49.180Z,2.75
2022-08-03T13:46:52.090Z,2.63
2022-08-03T13:50:54.883Z,2.80
2022-08-03T13:54:59.790Z,2.60
2022-08-03T13:59:02.609Z,2.30
2022-08-03T14:03:13.145Z,2.22
2022-08-03T14:07:17.129Z,2.50
2022-08-03T14:11:21.523Z,2.60
2022-08-03T14:15:26.534Z,2.53
2022-08-03T14:19:29.346Z,2.63
2022-08-03T14:23:32.341Z,2.50
2022-08-03T14:27:37.097Z,2.15
2022-08-03T14:32:10.466Z,2.47
2022-08-03T14:36:02.684Z,2.17
2022-08-03T14:40:07.222Z,2.33
2022-08-03T14:44:11.817Z,2.30
2022-08-03T14:50:34.938Z,2.55
2022-08-03T14:52:37.467Z,1.90
2022-08-03T14:56:40.295Z,2.75
2022-08-03T15:00:44.448Z,2.20
2022-08-03T15:04:47.271Z,2.00
2022-08-03T15:09:06.267Z,1.95
2022-08-03T15:13:13.658Z,1.90
2022-08-03T15:17:18.123Z,2.10
2022-08-03T15:21:45.962Z,2.30
2022-08-03T15:26:29.552Z,2.10
2022-08-03T15:30:10.381Z,2.13
2022-08-03T15:34:14.751Z,2.20
2022-08-03T15:38:17.568Z,2.00
2022-08-03T15:42:20.531Z,2.42
2022-08-03T15:46:29.490Z,2.13
2022-08-03T15:50:34.049Z,2.20
2022-08-03T15:54:36.904Z,2.33
2022-08-03T15:59:04.410Z,2.08
2022-08-03T16:03:02.902Z,2.35
2022-08-03T16:07:07.105Z,1.90
2022-08-03T16:11:10.123Z,2.15
2022-08-03T16:15:14.036Z,2.10
2022-08-03T16:19:17.031Z,1.95
2022-08-03T16:23:21.149Z,2.40
2022-08-03T16:28:00.509Z,2.13
2022-08-03T16:31:51.267Z,2.10
2022-08-03T16:35:54.315Z,2.30
2022-08-03T16:39:58.432Z,2.17
2022-08-03T16:44:04.333Z,2.20
2022-08-03T16:48:09.589Z,2.08
2022-08-03T16:52:13.021Z,2.30
2022-08-03T16:56:17.336Z,2.17
2022-08-03T17:00:33.764Z,2.33
2022-08-03T17:04:40.096Z,2.00
2022-08-03T17:08:43.655Z,2.33
2022-08-03T17:12:59.451Z,2.22
2022-08-03T17:17:04.867Z,2.30
2022-08-03T17:21:10.151Z,2.30
2022-08-03T17:25:22.157Z,2.63
2022-08-03T17:29:45.122Z,2.40
2022-08-03T17:33:54.928Z,2.60
2022-08-03T17:38:03.312Z,2.50
2022-08-03T17:42:29.499Z,2.38
2022-08-03T17:46:33.522Z,2.08
2022-08-03T17:50:42.883Z,2.40
2022-08-03T17:55:55.732Z,2.28
2022-08-03T17:59:51.749Z,2.08
2022-08-03T18:03:58.135Z,3.90
2022-08-03T18:08:24.857Z,2.55
2022-08-03T18:12:33.908Z,2.25
2022-08-03T18:16:39.966Z,2.70
2022-08-03T18:20:45.484Z,2.25
2022-08-03T18:24:50.537Z,2.00
2022-08-03T18:28:54.894Z,2.13
2022-08-03T18:33:00.379Z,2.30
2022-08-03T18:37:13.265Z,2.40
2022-08-03T18:41:32.872Z,2.10
2022-08-03T18:45:55.886Z,2.22
2022-08-03T18:50:09.401Z,2.63
2022-08-03T18:54:51.700Z,2.20
2022-08-03T18:58:51.471Z,2.13
2022-08-03T19:02:58.726Z,2.28
2022-08-03T19:07:04.917Z,2.30
2022-08-03T19:11:17.612Z,2.17
2022-08-03T19:15:36.454Z,2.38
2022-08-03T19:19:44.581Z,2.65
2022-08-03T19:23:49.614Z,3.10
2022-08-03T19:27:54.533Z,3.10
2022-08-03T19:32:01.784Z,3.03
2022-08-03T19:36:10.302Z,2.90
2022-08-03T19:40:13.622Z,3.70
2022-08-03T19:44:23.863Z,3.40
2022-08-03T19:48:30.140Z,3.80
2022-08-03T19:52:36.431Z,3.45
2022-08-03T19:56:45.250Z,3.10
2022-08-03T20:00:52.146Z,4.32
2022-08-03T20:04:56.212Z,3.25
2022-08-03T20:08:59.499Z,3.38
2022-08-03T20:13:03.405Z,3.35
2022-08-03T20:17:09.149Z,3.15
2022-08-03T20:21:18.538Z,3.38
2022-08-03T20:25:25.555Z,3.70
2022-08-03T20:30:06.400Z,3.50
2022-08-03T20:34:11.638Z,3.53
2022-08-03T20:38:20.685Z,3.53
2022-08-03T20:42:30.314Z,3.45
2022-08-03T20:46:52.925Z,3.80
2022-08-03T20:50:57.707Z,3.63
2022-08-03T20:55:02.196Z,4.10
2022-08-03T20:59:07.019Z,4.47
2022-08-03T21:03:17.695Z,4.05
2022-08-03T21:07:24.939Z,4.05
2022-08-03T21:11:51.296Z,3.95
2022-08-03T21:16:06.396Z,3.92
2022-08-03T21:20:22.904Z,3.88
2022-08-03T21:24:31.416Z,3.65
2022-08-03T21:28:35.919Z,3.63
2022-08-03T21:32:40.196Z,3.72
2022-08-03T21:36:43.301Z,3.53
2022-08-03T21:40:49.831Z,3.75
2022-08-03T21:44:53.035Z,3.30
2022-08-03T21:50:07.750Z,3.47
2022-08-03T21:53:28.103Z,3.65
2022-08-03T21:57:54.037Z,3.22
2022-08-03T22:01:58.587Z,3.47
2022-08-03T22:06:04.891Z,3.53
2022-08-03T22:10:09.643Z,3.33
2022-08-03T22:14:13.907Z,3.17
2022-08-03T22:18:17.373Z,3.10
2022-08-03T22:22:21.794Z,3.63
2022-08-03T22:26:34.949Z,3.00
2022-08-03T22:30:41.206Z,2.95
2022-08-03T22:34:44.909Z,3.15
2022-08-03T22:38:48.793Z,3.05
2022-08-03T22:42:52.791Z,3.30
2022-08-03T22:46:56.937Z,4.07
2022-08-03T22:51:00.597Z,3.60
2022-08-03T22:55:06.115Z,3.67
2022-08-03T22:59:40.283Z,4.00
2022-08-03T23:03:59.804Z,3.95
2022-08-03T23:08:03.451Z,4.13
2022-08-03T23:12:07.130Z,3.90
2022-08-03T23:16:10.396Z,3.88
2022-08-03T23:20:15.267Z,4.20
2022-08-03T23:24:29.508Z,3.88
2022-08-03T23:28:33.048Z,3.90
2022-08-03T23:32:36.902Z,3.30
2022-08-03T23:36:43.092Z,3.20
2022-08-03T23:40:46.037Z,3.33
2022-08-03T23:45:05.386Z,3.75
2022-08-03T23:49:09.278Z,3.42
2022-08-03T23:53:32.989Z,3.50
2022-08-03T23:57:56.092Z,3.90
